Avon, Pennsylvania
Current Conditions -  °F | °C
As of 7:58 PM on Saturday 22 Nov 2014 (Local Time) from KMUI Reporting Station
Broken Clouds Broken Clouds  
Wind Chill:   Ceiling: 7500
Heat Index:   Visibility: 10mi
Dew Point: -8°   Wind: 0mph
Humidity: 42%   Direction: NA
Pressure: 30.24"   Gusts: NA
Location:  40.2957°N, 76.4189°W
Report Text: KMUI 230058Z AUTO 00000KT 10SM BKN075 04/M08 A3024 RMK AO2 SLP250 T00361082 $
Loading
Personal Weather Stations






























Interactive Weather Map New forecast layout! Learn more

10-Day Weather Forecast

Advertisements
Track Severe Weather on mobile